sensor_id;sensor_type;location;lat;lon;timestamp;P1;durP1;ratioP1;P2;durP2;ratioP2
18929;SDS011;43305;52.186;5.598;2022-08-19T00:00:37;9.40;;;7.47;;
18929;SDS011;43305;52.186;5.598;2022-08-19T00:03:04;11.13;;;7.75;;
18929;SDS011;43305;52.186;5.598;2022-08-19T00:05:34;9.45;;;7.40;;
18929;SDS011;43305;52.186;5.598;2022-08-19T00:08:01;12.27;;;8.48;;
18929;SDS011;43305;52.186;5.598;2022-08-19T00:10:31;14.60;;;8.30;;
18929;SDS011;43305;52.186;5.598;2022-08-19T00:12:59;11.30;;;8.32;;
18929;SDS011;43305;52.186;5.598;2022-08-19T00:15:25;12.10;;;8.98;;
18929;SDS011;43305;52.186;5.598;2022-08-19T00:17:58;11.40;;;8.43;;
18929;SDS011;43305;52.186;5.598;2022-08-19T00:20:26;10.95;;;8.23;;
18929;SDS011;43305;52.186;5.598;2022-08-19T00:22:53;11.50;;;8.43;;
18929;SDS011;43305;52.186;5.598;2022-08-19T00:25:20;10.57;;;8.35;;
18929;SDS011;43305;52.186;5.598;2022-08-19T00:27:49;10.30;;;8.25;;
18929;SDS011;43305;52.186;5.598;2022-08-19T00:30:17;11.65;;;8.55;;
18929;SDS011;43305;52.186;5.598;2022-08-19T00:32:44;10.68;;;8.52;;
18929;SDS011;43305;52.186;5.598;2022-08-19T00:35:12;12.93;;;9.70;;
18929;SDS011;43305;52.186;5.598;2022-08-19T00:37:39;10.60;;;9.20;;
18929;SDS011;43305;52.186;5.598;2022-08-19T00:40:08;11.27;;;8.32;;
18929;SDS011;43305;52.186;5.598;2022-08-19T00:42:37;11.60;;;9.05;;
18929;SDS011;43305;52.186;5.598;2022-08-19T00:45:08;12.38;;;9.23;;
18929;SDS011;43305;52.186;5.598;2022-08-19T00:47:38;12.35;;;9.07;;
18929;SDS011;43305;52.186;5.598;2022-08-19T00:50:08;13.65;;;9.35;;
18929;SDS011;43305;52.186;5.598;2022-08-19T00:52:38;12.05;;;9.43;;
18929;SDS011;43305;52.186;5.598;2022-08-19T00:55:11;12.38;;;9.02;;
18929;SDS011;43305;52.186;5.598;2022-08-19T00:57:42;12.13;;;8.98;;
18929;SDS011;43305;52.186;5.598;2022-08-19T01:00:16;12.18;;;9.52;;
18929;SDS011;43305;52.186;5.598;2022-08-19T01:02:45;14.82;;;9.52;;
18929;SDS011;43305;52.186;5.598;2022-08-19T01:05:13;17.23;;;10.35;;
18929;SDS011;43305;52.186;5.598;2022-08-19T01:07:46;12.63;;;9.73;;
18929;SDS011;43305;52.186;5.598;2022-08-19T01:10:14;12.82;;;10.00;;
18929;SDS011;43305;52.186;5.598;2022-08-19T01:12:44;13.35;;;9.80;;
18929;SDS011;43305;52.186;5.598;2022-08-19T01:15:14;15.25;;;11.07;;
18929;SDS011;43305;52.186;5.598;2022-08-19T01:17:45;15.13;;;10.73;;
18929;SDS011;43305;52.186;5.598;2022-08-19T01:20:14;14.77;;;10.55;;
18929;SDS011;43305;52.186;5.598;2022-08-19T01:22:50;16.35;;;10.55;;
18929;SDS011;43305;52.186;5.598;2022-08-19T01:25:25;13.40;;;10.48;;
18929;SDS011;43305;52.186;5.598;2022-08-19T01:27:56;14.25;;;10.65;;
18929;SDS011;43305;52.186;5.598;2022-08-19T01:30:24;13.82;;;11.02;;
18929;SDS011;43305;52.186;5.598;2022-08-19T01:32:53;14.90;;;10.93;;
18929;SDS011;43305;52.186;5.598;2022-08-19T01:35:22;15.75;;;10.57;;
18929;SDS011;43305;52.186;5.598;2022-08-19T01:37:56;14.35;;;10.73;;
18929;SDS011;43305;52.186;5.598;2022-08-19T01:40:27;16.23;;;10.75;;
18929;SDS011;43305;52.186;5.598;2022-08-19T01:42:56;14.45;;;10.98;;
18929;SDS011;43305;52.186;5.598;2022-08-19T01:45:25;17.95;;;11.32;;
18929;SDS011;43305;52.186;5.598;2022-08-19T01:47:55;16.63;;;11.30;;
18929;SDS011;43305;52.186;5.598;2022-08-19T01:50:23;15.60;;;11.88;;
18929;SDS011;43305;52.186;5.598;2022-08-19T01:52:50;15.48;;;11.45;;
18929;SDS011;43305;52.186;5.598;2022-08-19T01:55:21;16.75;;;11.77;;
18929;SDS011;43305;52.186;5.598;2022-08-19T01:57:50;16.27;;;11.98;;
18929;SDS011;43305;52.186;5.598;2022-08-19T02:00:21;16.02;;;11.60;;
18929;SDS011;43305;52.186;5.598;2022-08-19T02:05:36;16.20;;;12.52;;
18929;SDS011;43305;52.186;5.598;2022-08-19T02:08:04;17.60;;;12.23;;
18929;SDS011;43305;52.186;5.598;2022-08-19T02:10:37;14.60;;;11.70;;
18929;SDS011;43305;52.186;5.598;2022-08-19T02:13:05;16.77;;;12.27;;
18929;SDS011;43305;52.186;5.598;2022-08-19T02:15:33;15.65;;;12.13;;
18929;SDS011;43305;52.186;5.598;2022-08-19T02:18:00;15.85;;;11.90;;
18929;SDS011;43305;52.186;5.598;2022-08-19T02:20:27;15.70;;;12.88;;
18929;SDS011;43305;52.186;5.598;2022-08-19T02:22:54;16.25;;;11.10;;
18929;SDS011;43305;52.186;5.598;2022-08-19T02:25:21;12.43;;;9.30;;
18929;SDS011;43305;52.186;5.598;2022-08-19T02:27:50;13.32;;;9.60;;
18929;SDS011;43305;52.186;5.598;2022-08-19T02:30:17;14.40;;;9.57;;
18929;SDS011;43305;52.186;5.598;2022-08-19T02:32:46;19.48;;;12.00;;
18929;SDS011;43305;52.186;5.598;2022-08-19T02:35:13;17.75;;;11.77;;
18929;SDS011;43305;52.186;5.598;2022-08-19T02:37:43;15.93;;;11.73;;
18929;SDS011;43305;52.186;5.598;2022-08-19T02:40:26;15.63;;;12.20;;
18929;SDS011;43305;52.186;5.598;2022-08-19T02:42:55;16.55;;;12.32;;
18929;SDS011;43305;52.186;5.598;2022-08-19T02:45:22;16.50;;;12.75;;
18929;SDS011;43305;52.186;5.598;2022-08-19T02:47:49;17.52;;;13.07;;
18929;SDS011;43305;52.186;5.598;2022-08-19T02:50:16;18.88;;;13.45;;
18929;SDS011;43305;52.186;5.598;2022-08-19T02:52:43;16.52;;;12.65;;
18929;SDS011;43305;52.186;5.598;2022-08-19T02:55:11;17.77;;;13.23;;
18929;SDS011;43305;52.186;5.598;2022-08-19T02:57:38;16.60;;;12.77;;
18929;SDS011;43305;52.186;5.598;2022-08-19T03:00:08;18.40;;;13.02;;
18929;SDS011;43305;52.186;5.598;2022-08-19T03:02:37;20.60;;;13.82;;
18929;SDS011;43305;52.186;5.598;2022-08-19T03:05:05;19.33;;;12.98;;
18929;SDS011;43305;52.186;5.598;2022-08-19T03:07:33;20.83;;;13.93;;
18929;SDS011;43305;52.186;5.598;2022-08-19T03:09:59;21.65;;;15.13;;
18929;SDS011;43305;52.186;5.598;2022-08-19T03:12:26;18.92;;;14.27;;
18929;SDS011;43305;52.186;5.598;2022-08-19T03:14:53;19.88;;;14.38;;
18929;SDS011;43305;52.186;5.598;2022-08-19T03:17:22;21.45;;;15.13;;
18929;SDS011;43305;52.186;5.598;2022-08-19T03:19:49;20.02;;;15.15;;
18929;SDS011;43305;52.186;5.598;2022-08-19T03:22:16;20.40;;;15.27;;
18929;SDS011;43305;52.186;5.598;2022-08-19T03:24:43;18.55;;;14.10;;
18929;SDS011;43305;52.186;5.598;2022-08-19T03:27:10;19.77;;;14.85;;
18929;SDS011;43305;52.186;5.598;2022-08-19T03:29:37;20.30;;;14.73;;
18929;SDS011;43305;52.186;5.598;2022-08-19T03:32:05;22.50;;;15.73;;
18929;SDS011;43305;52.186;5.598;2022-08-19T03:34:34;23.02;;;16.13;;
18929;SDS011;43305;52.186;5.598;2022-08-19T03:37:05;19.63;;;14.88;;
18929;SDS011;43305;52.186;5.598;2022-08-19T03:39:35;19.50;;;15.27;;
18929;SDS011;43305;52.186;5.598;2022-08-19T03:42:03;22.83;;;15.73;;
18929;SDS011;43305;52.186;5.598;2022-08-19T03:44:31;22.65;;;15.68;;
18929;SDS011;43305;52.186;5.598;2022-08-19T03:47:02;19.90;;;14.57;;
18929;SDS011;43305;52.186;5.598;2022-08-19T03:49:30;18.83;;;14.38;;
18929;SDS011;43305;52.186;5.598;2022-08-19T03:52:01;21.67;;;14.70;;
18929;SDS011;43305;52.186;5.598;2022-08-19T03:54:32;19.88;;;14.82;;
18929;SDS011;43305;52.186;5.598;2022-08-19T03:56:59;19.58;;;14.80;;
18929;SDS011;43305;52.186;5.598;2022-08-19T03:59:28;21.23;;;14.45;;
18929;SDS011;43305;52.186;5.598;2022-08-19T04:01:58;19.45;;;15.02;;
18929;SDS011;43305;52.186;5.598;2022-08-19T04:04:27;20.13;;;15.73;;
18929;SDS011;43305;52.186;5.598;2022-08-19T04:06:54;21.50;;;15.20;;
18929;SDS011;43305;52.186;5.598;2022-08-19T04:09:26;21.75;;;15.30;;
18929;SDS011;43305;52.186;5.598;2022-08-19T04:11:55;18.70;;;14.70;;
18929;SDS011;43305;52.186;5.598;2022-08-19T04:14:23;19.55;;;14.30;;
18929;SDS011;43305;52.186;5.598;2022-08-19T04:16:55;21.05;;;15.32;;
18929;SDS011;43305;52.186;5.598;2022-08-19T04:19:22;20.70;;;15.15;;
18929;SDS011;43305;52.186;5.598;2022-08-19T04:21:50;20.05;;;14.90;;
18929;SDS011;43305;52.186;5.598;2022-08-19T04:24:18;22.55;;;16.45;;
18929;SDS011;43305;52.186;5.598;2022-08-19T04:26:48;20.88;;;16.05;;
18929;SDS011;43305;52.186;5.598;2022-08-19T04:29:19;20.17;;;15.40;;
18929;SDS011;43305;52.186;5.598;2022-08-19T04:31:50;22.13;;;15.60;;
18929;SDS011;43305;52.186;5.598;2022-08-19T04:34:19;24.52;;;16.70;;
18929;SDS011;43305;52.186;5.598;2022-08-19T04:36:47;21.55;;;16.25;;
18929;SDS011;43305;52.186;5.598;2022-08-19T04:39:17;21.40;;;16.35;;
18929;SDS011;43305;52.186;5.598;2022-08-19T04:41:49;24.10;;;16.73;;
18929;SDS011;43305;52.186;5.598;2022-08-19T04:44:32;22.08;;;16.52;;
18929;SDS011;43305;52.186;5.598;2022-08-19T04:47:00;22.70;;;16.15;;
18929;SDS011;43305;52.186;5.598;2022-08-19T04:49:30;21.42;;;15.88;;
18929;SDS011;43305;52.186;5.598;2022-08-19T04:51:57;21.63;;;16.25;;
18929;SDS011;43305;52.186;5.598;2022-08-19T04:54:25;21.55;;;16.13;;
18929;SDS011;43305;52.186;5.598;2022-08-19T04:56:54;22.02;;;15.80;;
18929;SDS011;43305;52.186;5.598;2022-08-19T04:59:21;22.13;;;16.00;;
18929;SDS011;43305;52.186;5.598;2022-08-19T05:01:48;23.15;;;16.70;;
18929;SDS011;43305;52.186;5.598;2022-08-19T05:04:17;22.23;;;16.60;;
18929;SDS011;43305;52.186;5.598;2022-08-19T05:06:45;22.15;;;16.05;;
18929;SDS011;43305;52.186;5.598;2022-08-19T05:09:14;25.85;;;17.27;;
18929;SDS011;43305;52.186;5.598;2022-08-19T05:11:42;25.35;;;17.70;;
18929;SDS011;43305;52.186;5.598;2022-08-19T05:14:11;25.50;;;17.60;;
18929;SDS011;43305;52.186;5.598;2022-08-19T05:16:39;25.23;;;17.88;;
18929;SDS011;43305;52.186;5.598;2022-08-19T05:19:06;28.70;;;19.63;;
18929;SDS011;43305;52.186;5.598;2022-08-19T05:21:47;25.85;;;18.13;;
18929;SDS011;43305;52.186;5.598;2022-08-19T05:24:28;27.95;;;19.05;;
18929;SDS011;43305;52.186;5.598;2022-08-19T05:27:00;30.60;;;18.50;;
18929;SDS011;43305;52.186;5.598;2022-08-19T05:29:32;28.85;;;19.10;;
18929;SDS011;43305;52.186;5.598;2022-08-19T05:32:00;25.05;;;18.48;;
18929;SDS011;43305;52.186;5.598;2022-08-19T05:34:30;28.30;;;19.83;;
18929;SDS011;43305;52.186;5.598;2022-08-19T05:36:58;27.35;;;19.40;;
18929;SDS011;43305;52.186;5.598;2022-08-19T05:39:30;27.27;;;18.95;;
18929;SDS011;43305;52.186;5.598;2022-08-19T05:41:59;30.95;;;19.35;;
18929;SDS011;43305;52.186;5.598;2022-08-19T05:44:32;28.40;;;19.17;;
18929;SDS011;43305;52.186;5.598;2022-08-19T05:47:05;29.75;;;19.27;;
18929;SDS011;43305;52.186;5.598;2022-08-19T05:49:34;35.20;;;20.25;;
18929;SDS011;43305;52.186;5.598;2022-08-19T05:52:03;28.95;;;19.75;;
18929;SDS011;43305;52.186;5.598;2022-08-19T05:54:31;29.15;;;19.25;;
18929;SDS011;43305;52.186;5.598;2022-08-19T05:56:58;29.98;;;20.60;;
18929;SDS011;43305;52.186;5.598;2022-08-19T05:59:28;29.90;;;20.35;;
18929;SDS011;43305;52.186;5.598;2022-08-19T06:01:57;32.83;;;20.30;;
18929;SDS011;43305;52.186;5.598;2022-08-19T06:04:25;38.65;;;23.27;;
18929;SDS011;43305;52.186;5.598;2022-08-19T06:06:53;37.65;;;22.23;;
18929;SDS011;43305;52.186;5.598;2022-08-19T06:09:21;41.65;;;24.05;;
18929;SDS011;43305;52.186;5.598;2022-08-19T06:11:49;45.33;;;25.25;;
18929;SDS011;43305;52.186;5.598;2022-08-19T06:14:20;41.85;;;24.85;;
18929;SDS011;43305;52.186;5.598;2022-08-19T06:16:49;49.38;;;26.80;;
18929;SDS011;43305;52.186;5.598;2022-08-19T06:19:19;46.42;;;26.60;;
18929;SDS011;43305;52.186;5.598;2022-08-19T06:21:49;49.47;;;26.98;;
18929;SDS011;43305;52.186;5.598;2022-08-19T06:24:18;55.67;;;29.25;;
18929;SDS011;43305;52.186;5.598;2022-08-19T06:26:49;61.58;;;31.90;;
18929;SDS011;43305;52.186;5.598;2022-08-19T06:29:19;71.57;;;33.55;;
18929;SDS011;43305;52.186;5.598;2022-08-19T06:31:50;64.07;;;32.13;;
18929;SDS011;43305;52.186;5.598;2022-08-19T06:34:22;68.25;;;33.63;;
18929;SDS011;43305;52.186;5.598;2022-08-19T06:36:50;70.95;;;34.25;;
18929;SDS011;43305;52.186;5.598;2022-08-19T06:39:18;69.80;;;33.42;;
18929;SDS011;43305;52.186;5.598;2022-08-19T06:41:49;65.35;;;33.60;;
18929;SDS011;43305;52.186;5.598;2022-08-19T06:44:18;75.72;;;33.83;;
18929;SDS011;43305;52.186;5.598;2022-08-19T06:46:46;76.88;;;35.60;;
18929;SDS011;43305;52.186;5.598;2022-08-19T06:49:13;79.90;;;36.30;;
18929;SDS011;43305;52.186;5.598;2022-08-19T06:51:42;83.80;;;37.08;;
18929;SDS011;43305;52.186;5.598;2022-08-19T06:54:13;88.22;;;39.00;;
18929;SDS011;43305;52.186;5.598;2022-08-19T06:56:40;93.82;;;38.83;;
18929;SDS011;43305;52.186;5.598;2022-08-19T06:59:09;91.13;;;39.05;;
18929;SDS011;43305;52.186;5.598;2022-08-19T07:01:39;89.15;;;39.72;;
18929;SDS011;43305;52.186;5.598;2022-08-19T07:04:07;89.82;;;39.97;;
18929;SDS011;43305;52.186;5.598;2022-08-19T07:06:36;83.00;;;39.22;;
18929;SDS011;43305;52.186;5.598;2022-08-19T07:09:05;81.22;;;39.08;;
18929;SDS011;43305;52.186;5.598;2022-08-19T07:11:33;85.65;;;39.22;;
18929;SDS011;43305;52.186;5.598;2022-08-19T07:14:00;83.95;;;39.40;;
18929;SDS011;43305;52.186;5.598;2022-08-19T07:16:28;79.03;;;38.22;;
18929;SDS011;43305;52.186;5.598;2022-08-19T07:18:55;85.30;;;41.08;;
18929;SDS011;43305;52.186;5.598;2022-08-19T07:21:23;82.40;;;39.60;;
18929;SDS011;43305;52.186;5.598;2022-08-19T07:23:52;83.63;;;42.08;;
18929;SDS011;43305;52.186;5.598;2022-08-19T07:26:22;94.22;;;43.42;;
18929;SDS011;43305;52.186;5.598;2022-08-19T07:28:50;88.25;;;41.97;;
18929;SDS011;43305;52.186;5.598;2022-08-19T07:31:18;97.40;;;45.22;;
18929;SDS011;43305;52.186;5.598;2022-08-19T07:33:47;94.03;;;45.63;;
18929;SDS011;43305;52.186;5.598;2022-08-19T07:36:16;105.15;;;46.42;;
18929;SDS011;43305;52.186;5.598;2022-08-19T07:38:48;90.97;;;44.13;;
18929;SDS011;43305;52.186;5.598;2022-08-19T07:41:17;89.45;;;43.92;;
18929;SDS011;43305;52.186;5.598;2022-08-19T07:43:49;101.43;;;45.63;;
18929;SDS011;43305;52.186;5.598;2022-08-19T07:46:16;101.65;;;46.60;;
18929;SDS011;43305;52.186;5.598;2022-08-19T07:48:45;110.38;;;48.30;;
18929;SDS011;43305;52.186;5.598;2022-08-19T07:51:13;119.53;;;51.42;;
18929;SDS011;43305;52.186;5.598;2022-08-19T07:53:41;122.45;;;53.38;;
18929;SDS011;43305;52.186;5.598;2022-08-19T07:56:10;119.50;;;52.17;;
18929;SDS011;43305;52.186;5.598;2022-08-19T07:58:39;112.63;;;49.33;;
18929;SDS011;43305;52.186;5.598;2022-08-19T08:03:44;106.43;;;50.25;;
18929;SDS011;43305;52.186;5.598;2022-08-19T08:06:25;104.05;;;48.38;;
18929;SDS011;43305;52.186;5.598;2022-08-19T08:09:06;98.50;;;45.72;;
18929;SDS011;43305;52.186;5.598;2022-08-19T08:11:42;99.00;;;45.85;;
18929;SDS011;43305;52.186;5.598;2022-08-19T08:14:16;96.75;;;44.92;;
18929;SDS011;43305;52.186;5.598;2022-08-19T08:16:44;93.25;;;45.22;;
18929;SDS011;43305;52.186;5.598;2022-08-19T08:19:13;85.07;;;42.42;;
18929;SDS011;43305;52.186;5.598;2022-08-19T08:21:41;78.78;;;41.40;;
18929;SDS011;43305;52.186;5.598;2022-08-19T08:24:09;81.20;;;39.50;;
18929;SDS011;43305;52.186;5.598;2022-08-19T08:26:36;73.60;;;38.00;;
18929;SDS011;43305;52.186;5.598;2022-08-19T08:29:04;69.32;;;35.95;;
18929;SDS011;43305;52.186;5.598;2022-08-19T08:31:33;65.88;;;35.63;;
18929;SDS011;43305;52.186;5.598;2022-08-19T08:33:59;63.40;;;36.35;;
18929;SDS011;43305;52.186;5.598;2022-08-19T08:36:28;68.03;;;36.22;;
18929;SDS011;43305;52.186;5.598;2022-08-19T08:38:58;65.03;;;35.88;;
18929;SDS011;43305;52.186;5.598;2022-08-19T08:41:26;78.90;;;38.92;;
18929;SDS011;43305;52.186;5.598;2022-08-19T08:43:57;65.63;;;36.70;;
18929;SDS011;43305;52.186;5.598;2022-08-19T08:46:25;64.93;;;37.20;;
18929;SDS011;43305;52.186;5.598;2022-08-19T08:49:01;68.60;;;36.83;;
18929;SDS011;43305;52.186;5.598;2022-08-19T08:51:34;65.13;;;34.80;;
18929;SDS011;43305;52.186;5.598;2022-08-19T08:54:06;58.45;;;31.58;;
18929;SDS011;43305;52.186;5.598;2022-08-19T08:56:37;62.95;;;33.65;;
18929;SDS011;43305;52.186;5.598;2022-08-19T08:59:05;58.90;;;32.50;;
18929;SDS011;43305;52.186;5.598;2022-08-19T09:01:42;46.45;;;28.45;;
18929;SDS011;43305;52.186;5.598;2022-08-19T09:04:09;51.85;;;28.60;;
18929;SDS011;43305;52.186;5.598;2022-08-19T09:06:43;52.85;;;30.55;;
18929;SDS011;43305;52.186;5.598;2022-08-19T09:09:17;58.67;;;31.38;;
18929;SDS011;43305;52.186;5.598;2022-08-19T09:11:55;55.78;;;31.17;;
18929;SDS011;43305;52.186;5.598;2022-08-19T09:14:32;50.80;;;29.95;;
18929;SDS011;43305;52.186;5.598;2022-08-19T09:17:03;48.28;;;27.35;;
18929;SDS011;43305;52.186;5.598;2022-08-19T09:19:33;43.30;;;25.77;;
18929;SDS011;43305;52.186;5.598;2022-08-19T09:22:02;38.75;;;24.48;;
18929;SDS011;43305;52.186;5.598;2022-08-19T09:24:30;39.33;;;25.75;;
18929;SDS011;43305;52.186;5.598;2022-08-19T09:26:57;49.88;;;26.15;;
18929;SDS011;43305;52.186;5.598;2022-08-19T09:29:23;41.40;;;24.20;;
18929;SDS011;43305;52.186;5.598;2022-08-19T09:31:51;41.85;;;23.58;;
18929;SDS011;43305;52.186;5.598;2022-08-19T09:34:18;43.05;;;25.42;;
18929;SDS011;43305;52.186;5.598;2022-08-19T09:36:45;41.40;;;25.80;;
18929;SDS011;43305;52.186;5.598;2022-08-19T09:39:15;44.55;;;25.35;;
18929;SDS011;43305;52.186;5.598;2022-08-19T09:41:44;39.25;;;23.45;;
18929;SDS011;43305;52.186;5.598;2022-08-19T09:44:10;39.95;;;24.27;;
18929;SDS011;43305;52.186;5.598;2022-08-19T09:46:38;39.08;;;22.50;;
18929;SDS011;43305;52.186;5.598;2022-08-19T09:49:05;37.13;;;22.50;;
18929;SDS011;43305;52.186;5.598;2022-08-19T09:51:32;37.85;;;22.35;;
18929;SDS011;43305;52.186;5.598;2022-08-19T09:54:01;37.30;;;22.95;;
18929;SDS011;43305;52.186;5.598;2022-08-19T09:56:31;36.47;;;21.05;;
18929;SDS011;43305;52.186;5.598;2022-08-19T09:58:58;33.53;;;21.17;;
18929;SDS011;43305;52.186;5.598;2022-08-19T10:01:27;37.45;;;21.85;;
18929;SDS011;43305;52.186;5.598;2022-08-19T10:03:58;35.45;;;21.70;;
18929;SDS011;43305;52.186;5.598;2022-08-19T10:06:26;37.00;;;20.77;;
18929;SDS011;43305;52.186;5.598;2022-08-19T10:08:57;42.15;;;22.70;;
18929;SDS011;43305;52.186;5.598;2022-08-19T10:11:24;34.03;;;20.55;;
18929;SDS011;43305;52.186;5.598;2022-08-19T10:13:53;30.00;;;20.40;;
18929;SDS011;43305;52.186;5.598;2022-08-19T10:16:21;32.17;;;21.40;;
18929;SDS011;43305;52.186;5.598;2022-08-19T10:18:50;36.90;;;21.52;;
18929;SDS011;43305;52.186;5.598;2022-08-19T10:21:20;33.08;;;20.33;;
18929;SDS011;43305;52.186;5.598;2022-08-19T10:23:49;34.50;;;18.83;;
18929;SDS011;43305;52.186;5.598;2022-08-19T10:26:20;33.78;;;19.83;;
18929;SDS011;43305;52.186;5.598;2022-08-19T10:28:48;33.95;;;19.67;;
18929;SDS011;43305;52.186;5.598;2022-08-19T10:31:18;29.25;;;18.42;;
18929;SDS011;43305;52.186;5.598;2022-08-19T10:33:47;32.17;;;20.20;;
18929;SDS011;43305;52.186;5.598;2022-08-19T10:36:23;33.50;;;19.75;;
18929;SDS011;43305;52.186;5.598;2022-08-19T10:38:52;29.52;;;17.50;;
18929;SDS011;43305;52.186;5.598;2022-08-19T10:41:23;30.27;;;18.35;;
18929;SDS011;43305;52.186;5.598;2022-08-19T10:43:51;29.33;;;15.80;;
18929;SDS011;43305;52.186;5.598;2022-08-19T10:46:22;29.92;;;17.52;;
18929;SDS011;43305;52.186;5.598;2022-08-19T10:48:50;26.20;;;15.80;;
18929;SDS011;43305;52.186;5.598;2022-08-19T10:51:18;23.38;;;16.00;;
18929;SDS011;43305;52.186;5.598;2022-08-19T10:53:59;24.08;;;15.60;;
18929;SDS011;43305;52.186;5.598;2022-08-19T10:56:26;24.95;;;15.43;;
18929;SDS011;43305;52.186;5.598;2022-08-19T10:59:08;24.75;;;15.77;;
18929;SDS011;43305;52.186;5.598;2022-08-19T11:01:40;25.55;;;15.32;;
18929;SDS011;43305;52.186;5.598;2022-08-19T11:04:08;26.42;;;15.50;;
18929;SDS011;43305;52.186;5.598;2022-08-19T11:06:39;22.90;;;14.05;;
18929;SDS011;43305;52.186;5.598;2022-08-19T11:09:08;22.40;;;14.02;;
18929;SDS011;43305;52.186;5.598;2022-08-19T11:11:36;26.77;;;16.10;;
18929;SDS011;43305;52.186;5.598;2022-08-19T11:14:05;34.90;;;18.10;;
18929;SDS011;43305;52.186;5.598;2022-08-19T11:16:33;28.77;;;16.60;;
18929;SDS011;43305;52.186;5.598;2022-08-19T11:19:04;26.70;;;15.70;;
18929;SDS011;43305;52.186;5.598;2022-08-19T11:21:34;28.77;;;17.35;;
18929;SDS011;43305;52.186;5.598;2022-08-19T11:24:03;26.58;;;17.02;;
18929;SDS011;43305;52.186;5.598;2022-08-19T11:26:35;23.38;;;16.73;;
18929;SDS011;43305;52.186;5.598;2022-08-19T11:29:04;24.73;;;16.38;;
18929;SDS011;43305;52.186;5.598;2022-08-19T11:31:36;28.45;;;17.70;;
18929;SDS011;43305;52.186;5.598;2022-08-19T11:34:08;26.85;;;17.75;;
18929;SDS011;43305;52.186;5.598;2022-08-19T11:36:37;30.77;;;19.65;;
18929;SDS011;43305;52.186;5.598;2022-08-19T11:39:06;27.42;;;19.35;;
18929;SDS011;43305;52.186;5.598;2022-08-19T11:41:34;33.53;;;21.17;;
18929;SDS011;43305;52.186;5.598;2022-08-19T11:44:01;29.70;;;19.88;;
18929;SDS011;43305;52.186;5.598;2022-08-19T11:46:29;29.38;;;20.05;;
18929;SDS011;43305;52.186;5.598;2022-08-19T11:48:58;30.33;;;19.90;;
18929;SDS011;43305;52.186;5.598;2022-08-19T11:51:29;33.28;;;22.00;;
18929;SDS011;43305;52.186;5.598;2022-08-19T11:53:59;27.55;;;20.73;;
18929;SDS011;43305;52.186;5.598;2022-08-19T11:56:27;32.38;;;21.52;;
18929;SDS011;43305;52.186;5.598;2022-08-19T11:58:54;30.73;;;21.10;;
18929;SDS011;43305;52.186;5.598;2022-08-19T12:01:23;26.88;;;18.83;;
18929;SDS011;43305;52.186;5.598;2022-08-19T12:03:51;30.45;;;19.40;;
18929;SDS011;43305;52.186;5.598;2022-08-19T12:06:20;27.88;;;19.75;;
18929;SDS011;43305;52.186;5.598;2022-08-19T12:11:44;30.92;;;20.35;;
18929;SDS011;43305;52.186;5.598;2022-08-19T12:14:22;33.78;;;20.10;;
18929;SDS011;43305;52.186;5.598;2022-08-19T12:16:49;32.67;;;21.15;;
18929;SDS011;43305;52.186;5.598;2022-08-19T12:19:16;35.17;;;22.90;;
18929;SDS011;43305;52.186;5.598;2022-08-19T12:21:43;35.17;;;23.60;;
18929;SDS011;43305;52.186;5.598;2022-08-19T12:24:12;36.92;;;23.20;;
18929;SDS011;43305;52.186;5.598;2022-08-19T12:26:52;36.53;;;24.38;;
18929;SDS011;43305;52.186;5.598;2022-08-19T12:29:21;35.70;;;23.73;;
18929;SDS011;43305;52.186;5.598;2022-08-19T12:31:58;34.38;;;23.48;;
18929;SDS011;43305;52.186;5.598;2022-08-19T12:34:27;34.80;;;23.70;;
18929;SDS011;43305;52.186;5.598;2022-08-19T12:36:56;35.22;;;21.75;;
18929;SDS011;43305;52.186;5.598;2022-08-19T12:39:24;41.22;;;24.30;;
18929;SDS011;43305;52.186;5.598;2022-08-19T12:41:51;33.92;;;22.45;;
18929;SDS011;43305;52.186;5.598;2022-08-19T12:44:22;30.48;;;20.45;;
18929;SDS011;43305;52.186;5.598;2022-08-19T12:46:49;36.42;;;25.48;;
18929;SDS011;43305;52.186;5.598;2022-08-19T12:49:15;41.30;;;26.15;;
18929;SDS011;43305;52.186;5.598;2022-08-19T12:51:42;38.97;;;26.98;;
18929;SDS011;43305;52.186;5.598;2022-08-19T12:54:09;41.15;;;25.55;;
18929;SDS011;43305;52.186;5.598;2022-08-19T12:56:41;40.92;;;26.52;;
18929;SDS011;43305;52.186;5.598;2022-08-19T12:59:09;43.28;;;26.92;;
18929;SDS011;43305;52.186;5.598;2022-08-19T13:01:36;47.00;;;29.50;;
18929;SDS011;43305;52.186;5.598;2022-08-19T13:04:03;45.53;;;29.23;;
18929;SDS011;43305;52.186;5.598;2022-08-19T13:06:33;43.67;;;26.70;;
18929;SDS011;43305;52.186;5.598;2022-08-19T13:09:00;42.88;;;28.13;;
18929;SDS011;43305;52.186;5.598;2022-08-19T13:11:27;42.25;;;27.48;;
18929;SDS011;43305;52.186;5.598;2022-08-19T13:13:59;43.53;;;26.95;;
18929;SDS011;43305;52.186;5.598;2022-08-19T13:16:27;39.05;;;26.52;;
18929;SDS011;43305;52.186;5.598;2022-08-19T13:18:54;38.33;;;26.05;;
18929;SDS011;43305;52.186;5.598;2022-08-19T13:21:23;37.13;;;25.05;;
18929;SDS011;43305;52.186;5.598;2022-08-19T13:23:52;36.45;;;24.45;;
18929;SDS011;43305;52.186;5.598;2022-08-19T13:26:19;30.65;;;22.73;;
18929;SDS011;43305;52.186;5.598;2022-08-19T13:28:47;39.15;;;25.48;;
18929;SDS011;43305;52.186;5.598;2022-08-19T13:31:30;39.85;;;26.15;;
18929;SDS011;43305;52.186;5.598;2022-08-19T13:34:12;29.65;;;20.92;;
18929;SDS011;43305;52.186;5.598;2022-08-19T13:36:40;34.60;;;22.85;;
18929;SDS011;43305;52.186;5.598;2022-08-19T13:39:07;29.60;;;21.20;;
18929;SDS011;43305;52.186;5.598;2022-08-19T13:41:35;27.52;;;18.80;;
18929;SDS011;43305;52.186;5.598;2022-08-19T13:44:02;26.67;;;19.88;;
18929;SDS011;43305;52.186;5.598;2022-08-19T13:46:33;22.35;;;16.23;;
18929;SDS011;43305;52.186;5.598;2022-08-19T13:49:00;22.70;;;16.90;;
18929;SDS011;43305;52.186;5.598;2022-08-19T13:51:26;24.45;;;17.77;;
18929;SDS011;43305;52.186;5.598;2022-08-19T13:53:53;22.52;;;18.25;;
18929;SDS011;43305;52.186;5.598;2022-08-19T13:56:20;24.73;;;17.90;;
18929;SDS011;43305;52.186;5.598;2022-08-19T13:58:47;22.17;;;15.57;;
18929;SDS011;43305;52.186;5.598;2022-08-19T14:01:18;19.67;;;14.40;;
18929;SDS011;43305;52.186;5.598;2022-08-19T14:03:50;19.95;;;15.15;;
18929;SDS011;43305;52.186;5.598;2022-08-19T14:06:17;23.20;;;16.90;;
18929;SDS011;43305;52.186;5.598;2022-08-19T14:08:44;23.45;;;17.25;;
18929;SDS011;43305;52.186;5.598;2022-08-19T14:11:12;25.38;;;17.77;;
18929;SDS011;43305;52.186;5.598;2022-08-19T14:13:39;24.42;;;17.88;;
18929;SDS011;43305;52.186;5.598;2022-08-19T14:16:07;30.23;;;21.58;;
18929;SDS011;43305;52.186;5.598;2022-08-19T14:18:34;25.40;;;18.05;;
18929;SDS011;43305;52.186;5.598;2022-08-19T14:21:03;27.92;;;18.17;;
18929;SDS011;43305;52.186;5.598;2022-08-19T14:23:30;23.30;;;17.05;;
18929;SDS011;43305;52.186;5.598;2022-08-19T14:26:02;26.20;;;19.13;;
18929;SDS011;43305;52.186;5.598;2022-08-19T14:28:30;33.42;;;21.88;;
18929;SDS011;43305;52.186;5.598;2022-08-19T14:30:59;33.33;;;22.35;;
18929;SDS011;43305;52.186;5.598;2022-08-19T14:33:29;31.17;;;22.92;;
18929;SDS011;43305;52.186;5.598;2022-08-19T14:36:00;35.20;;;21.80;;
18929;SDS011;43305;52.186;5.598;2022-08-19T14:38:35;33.90;;;22.75;;
18929;SDS011;43305;52.186;5.598;2022-08-19T14:46:21;35.63;;;26.08;;
18929;SDS011;43305;52.186;5.598;2022-08-19T14:48:50;30.98;;;24.20;;